Suomigracht — PHBT — position and weather

sailwx.info

Track history (hours):
 
Tides and Currents Weather Stations Pressure Air Temp Water Temp Dewpoint Dewpoint Depression Visibility Wind Speed Wind Dir Waves Ship Positions

Suomigracht

Last reported at 2016-May-25 11:07 UTC. Time now 2016-May-30 18:22 UTC.
Position N 47°44' W 052°37'.

Length 173 m; beam 26 m.

Type: Cargo ship. MMSI: 246100000.

Date/timePositionNaut miles runAvg speedWind from/ knotsBaromVisibWave heightAir tempDewpointWater temp
2016-May-25 11:07N 47°44' W 052°37'1016.0
2016-May-25 10:29N 47°34' W 052°38'1313.1
2016-May-25 09:31N 47°37' W 052°20'  
2016-May-18 23:32N 36°07' W 005°22'0 0.0
2016-May-18 21:32N 36°07' W 005°22'0 0.0
2016-May-18 20:26N 36°07' W 005°22'0 0.1
2016-May-18 19:19N 36°07' W 005°22'3 3.4
2016-May-18 18:33N 36°05' W 005°21'4 3.9
2016-May-18 17:30N 36°05' W 005°16'21816.8
2016-May-18 04:33N 36°36' W 000°48'5518.2
2016-May-18 01:33N 36°45' E 000°19'15018.0
2016-May-17 17:12N 37°09' E 003°25'44417.1
2016-May-16 15:16N 36°58' E 012°41'1216.5
2016-May-16 14:33N 36°55' E 012°55'1716.4
2016-May-16 13:32N 36°51' E 013°15'2316.6
2016-May-16 12:08N 36°46' E 013°44'916.3
2016-May-16 11:34N 36°44' E 013°55'1716.5
2016-May-16 10:33N 36°41' E 014°15'1716.3
2016-May-16 09:32N 36°37' E 014°36'8515.5
2016-May-16 04:04N 37°25' E 016°03'1018.0
2016-May-16 03:28N 37°34' E 016°11'  
Track history (hours):
 
Tides and Currents Weather Stations Pressure Air Temp Water Temp Dewpoint Dewpoint Depression Visibility Wind Speed Wind Dir Waves Ship Positions

Suomigracht

Last reported at 2016-May-25 11:07 UTC. Time now 2016-May-30 18:22 UTC.
Position N 47°44' W 052°37'.

Length 173 m; beam 26 m.

Type: Cargo ship. MMSI: 246100000.

Date/timePositionNaut miles runAvg speedWind from/ knotsBaromVisibWave heightAir tempDewpointWater temp
2016-May-25 11:07N 47°44' W 052°37'1016.0
2016-May-25 10:29N 47°34' W 052°38'1313.1
2016-May-25 09:31N 47°37' W 052°20'  
2016-May-18 23:32N 36°07' W 005°22'0 0.0
2016-May-18 21:32N 36°07' W 005°22'0 0.0
2016-May-18 20:26N 36°07' W 005°22'0 0.1
2016-May-18 19:19N 36°07' W 005°22'3 3.4
2016-May-18 18:33N 36°05' W 005°21'4 3.9
2016-May-18 17:30N 36°05' W 005°16'21816.8
2016-May-18 04:33N 36°36' W 000°48'5518.2
2016-May-18 01:33N 36°45' E 000°19'15018.0
2016-May-17 17:12N 37°09' E 003°25'44417.1
2016-May-16 15:16N 36°58' E 012°41'1216.5
2016-May-16 14:33N 36°55' E 012°55'1716.4
2016-May-16 13:32N 36°51' E 013°15'2316.6
2016-May-16 12:08N 36°46' E 013°44'916.3
2016-May-16 11:34N 36°44' E 013°55'1716.5
2016-May-16 10:33N 36°41' E 014°15'1716.3
2016-May-16 09:32N 36°37' E 014°36'8515.5
2016-May-16 04:04N 37°25' E 016°03'1018.0
2016-May-16 03:28N 37°34' E 016°11'  

Dump ship's entire track history